Time;durP1;ratioP1;P1;durP2;ratioP2;P2;SDS_P1;SDS_P2;PMS_P1;PMS_P2;Temp;Humidity;BMP_temperature;BMP_pressure;BME280_temperature;BME280_humidity;BME280_pressure;Samples;Min_cycle;Max_cycle;Signal;HPM_P1;HPM_P2
2023/10/09 00:02:11;;;;;;;2.42;2.08;;;;;;;;;;5130509;27;20223;-70
2023/10/09 00:04:41;;;;;;;2.95;2.33;;;;;;;;;;5128656;27;41304;-71
2023/10/09 00:07:10;;;;;;;5.60;2.92;;;;;;;;;;5111998;27;43150;-71
2023/10/09 00:09:46;;;;;;;3.80;2.40;;;;;;;;;;5128753;27;43141;-71
2023/10/09 00:12:16;;;;;;;4.32;2.78;;;;;;;;;;5125832;27;41346;-70
2023/10/09 00:14:48;;;;;;;6.55;3.40;;;;;;;;;;5127907;27;42504;-70
2023/10/09 00:17:19;;;;;;;6.50;3.13;;;;;;;;;;5127803;27;41311;-71
2023/10/09 00:19:51;;;;;;;5.93;3.72;;;;;;;;;;5125286;27;41643;-70
2023/10/09 00:22:26;;;;;;;4.80;3.42;;;;;;;;;;5127989;27;42326;-70
2023/10/09 00:27:41;;;;;;;4.75;3.38;;;;;;;;;;5127038;27;42656;-70
2023/10/09 00:30:15;;;;;;;6.80;3.50;;;;;;;;;;5127245;27;42036;-70
2023/10/09 00:32:51;;;;;;;4.30;2.83;;;;;;;;;;5128120;27;39981;-70
2023/10/09 00:38:14;;;;;;;3.95;2.80;;;;;;;;;;5125296;27;40467;-70
2023/10/09 00:40:56;;;;;;;2.90;2.28;;;;;;;;;;5126333;27;40451;-70
2023/10/09 00:43:28;;;;;;;4.13;2.40;;;;;;;;;;5125647;27;40483;-70
2023/10/09 00:46:00;;;;;;;6.43;3.78;;;;;;;;;;5125315;27;41039;-70
2023/10/09 00:48:36;;;;;;;3.75;2.90;;;;;;;;;;5124323;27;43094;-70
2023/10/09 00:51:16;;;;;;;4.50;2.70;;;;;;;;;;5128517;27;41860;-70
2023/10/09 00:53:45;;;;;;;3.38;2.22;;;;;;;;;;5125611;27;40903;-70
2023/10/09 00:56:19;;;;;;;5.45;3.33;;;;;;;;;;5127894;27;42781;-70
2023/10/09 00:58:48;;;;;;;5.05;3.40;;;;;;;;;;5124372;27;40309;-70
2023/10/09 01:01:18;;;;;;;4.70;3.00;;;;;;;;;;5126668;27;41398;-70
2023/10/09 01:03:50;;;;;;;3.70;2.50;;;;;;;;;;5127072;27;42450;-70
2023/10/09 01:06:21;;;;;;;4.35;3.17;;;;;;;;;;5126920;27;38865;-70
2023/10/09 01:09:07;;;;;;;4.47;3.35;;;;;;;;;;5127975;27;41218;-70
2023/10/09 01:11:47;;;;;;;4.88;3.10;;;;;;;;;;5113416;27;42219;-70
2023/10/09 01:14:15;;;;;;;4.82;3.47;;;;;;;;;;5125091;27;41428;-70
2023/10/09 01:16:47;;;;;;;4.40;2.80;;;;;;;;;;5143438;27;39637;-70
2023/10/09 01:19:23;;;;;;;2.70;2.17;;;;;;;;;;5125133;27;40950;-70
2023/10/09 01:21:52;;;;;;;5.18;3.25;;;;;;;;;;5143605;27;40536;-70
2023/10/09 01:24:22;;;;;;;4.90;3.60;;;;;;;;;;5127312;27;41699;-70
2023/10/09 01:26:54;;;;;;;5.03;3.47;;;;;;;;;;5124961;27;41224;-70
2023/10/09 01:29:23;;;;;;;4.30;3.15;;;;;;;;;;5125276;27;41667;-70
2023/10/09 01:31:55;;;;;;;5.18;4.10;;;;;;;;;;5126806;27;42433;-70
2023/10/09 01:34:38;;;;;;;3.92;3.13;;;;;;;;;;5126204;27;39572;-70
2023/10/09 01:37:15;;;;;;;5.05;3.70;;;;;;;;;;5110155;27;42649;-70
2023/10/09 01:39:45;;;;;;;5.93;4.25;;;;;;;;;;5123977;27;42167;-70
2023/10/09 01:42:23;;;;;;;6.90;4.88;;;;;;;;;;5126034;27;41026;-70
2023/10/09 01:44:52;;;;;;;6.20;4.32;;;;;;;;;;5126779;27;42025;-70
2023/10/09 01:47:21;;;;;;;4.93;3.63;;;;;;;;;;5131384;27;39961;-70
2023/10/09 01:49:52;;;;;;;5.15;4.07;;;;;;;;;;5130193;27;41434;-70
2023/10/09 01:52:20;;;;;;;7.93;4.07;;;;;;;;;;5129081;27;41387;-70
2023/10/09 01:54:51;;;;;;;6.78;5.10;;;;;;;;;;5130763;27;40448;-70
2023/10/09 01:57:22;;;;;;;6.57;4.30;;;;;;;;;;5127915;27;41608;-70
2023/10/09 01:59:53;;;;;;;6.20;4.60;;;;;;;;;;5129518;27;41544;-70
2023/10/09 02:02:31;;;;;;;6.93;4.88;;;;;;;;;;5130990;27;40271;-70
2023/10/09 02:05:06;;;;;;;10.30;6.55;;;;;;;;;;5128956;27;40380;-70
2023/10/09 02:07:40;;;;;;;7.40;5.03;;;;;;;;;;5126326;27;39371;-70
2023/10/09 02:10:21;;;;;;;7.13;5.10;;;;;;;;;;5130147;27;41680;-70
2023/10/09 02:12:52;;;;;;;8.30;6.13;;;;;;;;;;5124725;27;42279;-70
2023/10/09 02:15:41;;;;;;;4.60;3.50;;;;;;;;;;5129202;27;39544;-70
2023/10/09 02:18:18;;;;;;;6.47;4.60;;;;;;;;;;5129044;27;40173;-70
2023/10/09 02:20:47;;;;;;;7.07;4.63;;;;;;;;;;5129343;27;42062;-70
2023/10/09 02:23:17;;;;;;;6.80;4.78;;;;;;;;;;5130404;27;41074;-70
2023/10/09 02:25:47;;;;;;;9.93;5.75;;;;;;;;;;5130724;27;42610;-70
2023/10/09 02:28:18;;;;;;;9.15;6.13;;;;;;;;;;5130008;27;40343;-70
2023/10/09 02:30:47;;;;;;;8.75;5.82;;;;;;;;;;5129731;27;42493;-71
2023/10/09 02:33:18;;;;;;;9.00;5.97;;;;;;;;;;5130273;27;42332;-71
2023/10/09 02:35:51;;;;;;;9.05;5.95;;;;;;;;;;5127476;27;39734;-70
2023/10/09 02:38:22;;;;;;;7.82;5.30;;;;;;;;;;5127791;27;42639;-70
2023/10/09 02:43:46;;;;;;;6.55;4.50;;;;;;;;;;5118721;27;41577;-70
2023/10/09 02:46:17;;;;;;;7.95;6.00;;;;;;;;;;5127073;27;41955;-70
2023/10/09 02:48:50;;;;;;;7.28;4.85;;;;;;;;;;5126533;27;33407;-70
2023/10/09 02:51:32;;;;;;;6.95;5.00;;;;;;;;;;5127331;27;42632;-71
2023/10/09 02:54:07;;;;;;;11.77;7.35;;;;;;;;;;5134146;27;40674;-70
2023/10/09 02:56:42;;;;;;;6.68;5.13;;;;;;;;;;5126179;27;39624;-70
2023/10/09 02:59:10;;;;;;;9.50;6.13;;;;;;;;;;5120728;27;41824;-70
2023/10/09 03:01:38;;;;;;;9.68;5.55;;;;;;;;;;5128031;27;41856;-70
2023/10/09 03:04:06;;;;;;;8.38;6.05;;;;;;;;;;5129589;27;40045;-72
2023/10/09 03:06:43;;;;;;;11.68;7.25;;;;;;;;;;5129581;27;40972;-70
2023/10/09 03:09:17;;;;;;;9.15;5.88;;;;;;;;;;5128114;27;40502;-71
2023/10/09 03:11:47;;;;;;;9.65;7.30;;;;;;;;;;5126714;27;42397;-70
2023/10/09 03:14:16;;;;;;;7.72;5.53;;;;;;;;;;5128149;27;41765;-70
2023/10/09 03:16:44;;;;;;;8.82;5.88;;;;;;;;;;5129179;27;40377;-70
2023/10/09 03:19:13;;;;;;;11.40;7.22;;;;;;;;;;5129630;27;41873;-70
2023/10/09 03:21:41;;;;;;;7.57;6.00;;;;;;;;;;5127708;27;41763;-70
2023/10/09 03:24:11;;;;;;;12.40;8.70;;;;;;;;;;5127441;27;39694;-70
2023/10/09 03:26:39;;;;;;;10.20;8.15;;;;;;;;;;5127464;27;41388;-70
2023/10/09 03:29:10;;;;;;;11.65;8.88;;;;;;;;;;5128820;27;42635;-70
2023/10/09 03:31:38;;;;;;;10.48;7.85;;;;;;;;;;5128286;27;40972;-70
2023/10/09 03:34:06;;;;;;;10.55;6.60;;;;;;;;;;5128684;27;43603;-70
2023/10/09 03:36:38;;;;;;;6.50;5.80;;;;;;;;;;5129887;27;41468;-70
2023/10/09 03:39:20;;;;;;;11.77;8.70;;;;;;;;;;5125353;27;41589;-70
2023/10/09 03:41:50;;;;;;;12.50;8.77;;;;;;;;;;5126239;27;42215;-70
2023/10/09 03:44:19;;;;;;;8.75;6.75;;;;;;;;;;5128047;27;40761;-70
2023/10/09 03:46:51;;;;;;;9.98;7.35;;;;;;;;;;5128950;27;40850;-70
2023/10/09 03:49:23;;;;;;;6.82;5.70;;;;;;;;;;5125785;27;42432;-70
2023/10/09 03:51:51;;;;;;;8.23;6.45;;;;;;;;;;5121583;27;40841;-70
2023/10/09 03:54:20;;;;;;;10.93;7.82;;;;;;;;;;5129951;27;39976;-70
2023/10/09 03:56:50;;;;;;;10.88;8.07;;;;;;;;;;5128071;27;40273;-70
2023/10/09 03:59:20;;;;;;;7.32;6.00;;;;;;;;;;5127956;27;41392;-70
2023/10/09 04:01:51;;;;;;;9.77;6.70;;;;;;;;;;5128577;27;41585;-70
2023/10/09 04:04:22;;;;;;;10.10;7.25;;;;;;;;;;5126381;27;40222;-70
2023/10/09 04:06:51;;;;;;;7.70;5.65;;;;;;;;;;5125633;27;41548;-71
2023/10/09 04:09:29;;;;;;;8.20;6.10;;;;;;;;;;5128998;27;43174;-70
2023/10/09 04:12:19;;;;;;;9.43;7.07;;;;;;;;;;5126443;27;40457;-70
2023/10/09 04:14:54;;;;;;;14.13;10.52;;;;;;;;;;5125541;27;41761;-70
2023/10/09 04:17:34;;;;;;;9.85;7.85;;;;;;;;;;5122007;27;42213;-70
2023/10/09 04:21:08;;;;;;;9.20;6.93;;;;;;;;;;5127766;27;42189;-70
2023/10/09 04:23:16;;;;;;;10.10;8.02;;;;;;;;;;5122931;27;42129;-70
2023/10/09 04:25:49;;;;;;;11.52;8.13;;;;;;;;;;5129419;27;41003;-70
2023/10/09 04:28:19;;;;;;;10.32;8.25;;;;;;;;;;5125992;27;41252;-70
2023/10/09 04:30:55;;;;;;;9.93;7.45;;;;;;;;;;5128152;27;42743;-70
2023/10/09 04:33:40;;;;;;;12.68;9.50;;;;;;;;;;5125921;27;41354;-70
2023/10/09 04:41:52;;;;;;;8.90;6.40;;;;;;;;;;5126668;27;40303;-70
2023/10/09 04:44:22;;;;;;;11.80;7.20;;;;;;;;;;5128917;27;42089;-70
2023/10/09 04:49:49;;;;;;;11.27;8.25;;;;;;;;;;5115237;27;42262;-70
2023/10/09 04:52:51;;;;;;;10.55;7.60;;;;;;;;;;5128225;27;42159;-70
2023/10/09 04:55:17;;;;;;;7.32;5.72;;;;;;;;;;5127935;27;40485;-70
2023/10/09 04:57:46;;;;;;;7.93;6.38;;;;;;;;;;5125773;27;42587;-70
2023/10/09 05:00:35;;;;;;;13.57;8.93;;;;;;;;;;5129330;27;41980;-70
2023/10/09 05:03:10;;;;;;;10.40;7.35;;;;;;;;;;5115374;27;40402;-70
2023/10/09 05:05:58;;;;;;;8.48;6.88;;;;;;;;;;5123610;27;42459;-70
2023/10/09 05:08:28;;;;;;;8.48;6.40;;;;;;;;;;5113629;27;40215;-70
2023/10/09 05:11:15;;;;;;;10.27;6.45;;;;;;;;;;5125751;27;41568;-70
2023/10/09 05:13:57;;;;;;;9.77;8.18;;;;;;;;;;5126656;27;42861;-70
2023/10/09 05:16:26;;;;;;;9.27;6.68;;;;;;;;;;5124115;27;39985;-70
2023/10/09 05:18:56;;;;;;;8.27;6.32;;;;;;;;;;5113872;27;42407;-70
2023/10/09 05:24:19;;;;;;;11.73;9.15;;;;;;;;;;5115041;27;39949;-70
2023/10/09 05:26:51;;;;;;;8.43;5.40;;;;;;;;;;5127870;27;41523;-71
2023/10/09 05:29:34;;;;;;;9.30;6.47;;;;;;;;;;5129396;27;41361;-71
2023/10/09 05:32:05;;;;;;;7.60;6.00;;;;;;;;;;5128680;27;42750;-71
2023/10/09 05:34:36;;;;;;;16.70;11.52;;;;;;;;;;5128161;27;42112;-71
2023/10/09 05:37:17;;;;;;;10.00;8.00;;;;;;;;;;5122985;27;40386;-70
2023/10/09 05:40:08;;;;;;;10.18;7.35;;;;;;;;;;5128314;27;41663;-71
2023/10/09 05:42:42;;;;;;;13.90;8.80;;;;;;;;;;5129303;27;43040;-71
2023/10/09 05:47:54;;;;;;;16.08;10.93;;;;;;;;;;5131363;27;41414;-71
2023/10/09 05:50:35;;;;;;;12.82;8.43;;;;;;;;;;5131836;27;42670;-71
2023/10/09 05:53:09;;;;;;;16.52;10.80;;;;;;;;;;5128071;27;41668;-71
2023/10/09 06:04:15;;;;;;;12.45;9.25;;;;;;;;;;5086754;27;42196;-71
2023/10/09 06:06:45;;;;;;;8.90;7.15;;;;;;;;;;5126952;27;40504;-71
2023/10/09 06:14:57;;;;;;;9.70;7.25;;;;;;;;;;5093086;27;40896;-71
2023/10/09 06:17:27;;;;;;;12.52;9.13;;;;;;;;;;5115546;27;42039;-71
2023/10/09 06:19:59;;;;;;;13.90;10.32;;;;;;;;;;5130033;27;40980;-71
2023/10/09 06:25:27;;;;;;;11.45;7.93;;;;;;;;;;5120457;27;42357;-71
2023/10/09 06:27:57;;;;;;;11.45;7.95;;;;;;;;;;5128341;27;40538;-71
2023/10/09 06:30:26;;;;;;;13.82;9.43;;;;;;;;;;5129898;27;41657;-71
2023/10/09 06:33:04;;;;;;;9.63;6.10;;;;;;;;;;5114377;27;41980;-68
2023/10/09 06:35:35;;;;;;;14.02;4.95;;;;;;;;;;5121263;27;40542;-67
2023/10/09 06:38:23;;;;;;;10.98;4.63;;;;;;;;;;5123176;27;41942;-69
2023/10/09 06:41:34;;;;;;;12.27;5.38;;;;;;;;;;5124837;27;41475;-69
2023/10/09 06:43:53;;;;;;;12.10;6.10;;;;;;;;;;5121145;27;41626;-68
2023/10/09 06:49:36;;;;;;;12.57;5.65;;;;;;;;;;5082521;28;39739;-68
2023/10/09 06:52:15;;;;;;;15.48;5.57;;;;;;;;;;5082255;28;41910;-69
2023/10/09 06:54:50;;;;;;;11.70;6.82;;;;;;;;;;5111220;27;42917;-68
2023/10/09 06:57:43;;;;;;;15.20;4.90;;;;;;;;;;5121536;27;41095;-68
2023/10/09 07:02:53;;;;;;;12.32;6.43;;;;;;;;;;5122814;27;42643;-69
2023/10/09 07:05:24;;;;;;;9.25;5.18;;;;;;;;;;5120336;27;41729;-68
2023/10/09 07:08:28;;;;;;;9.05;4.63;;;;;;;;;;5120698;27;42195;-68
2023/10/09 07:11:02;;;;;;;12.25;5.72;;;;;;;;;;5108614;27;41390;-69
2023/10/09 07:13:30;;;;;;;9.65;5.60;;;;;;;;;;5113755;27;41778;-69
2023/10/09 07:18:54;;;;;;;13.80;5.65;;;;;;;;;;5061118;28;40493;-70
2023/10/09 07:21:28;;;;;;;12.23;7.18;;;;;;;;;;5114220;27;42108;-69
2023/10/09 07:23:58;;;;;;;15.90;6.20;;;;;;;;;;5125862;27;42811;-68
2023/10/09 07:26:37;;;;;;;18.15;9.77;;;;;;;;;;5129656;27;41153;-68
2023/10/09 07:29:21;;;;;;;16.05;9.93;;;;;;;;;;5125927;27;43051;-69
2023/10/09 07:31:57;;;;;;;12.60;7.70;;;;;;;;;;5125869;27;41332;-69
2023/10/09 07:37:19;;;;;;;18.27;9.13;;;;;;;;;;5128000;27;43773;-69
2023/10/09 07:39:56;;;;;;;12.73;7.45;;;;;;;;;;5125712;27;41351;-69
2023/10/09 07:42:43;;;;;;;18.05;10.38;;;;;;;;;;5124771;27;41694;-70
2023/10/09 07:45:53;;;;;;;20.42;8.73;;;;;;;;;;5129101;27;42763;-69
2023/10/09 07:48:04;;;;;;;18.05;9.98;;;;;;;;;;5128722;27;40018;-69
2023/10/09 07:50:40;;;;;;;12.30;6.65;;;;;;;;;;5124890;27;42918;-70
2023/10/09 07:53:25;;;;;;;17.02;8.25;;;;;;;;;;5125908;27;40406;-71
2023/10/09 07:55:58;;;;;;;19.75;7.22;;;;;;;;;;5127939;27;41726;-69
2023/10/09 07:58:28;;;;;;;20.48;8.18;;;;;;;;;;5127470;27;41444;-69
2023/10/09 08:01:15;;;;;;;18.65;7.80;;;;;;;;;;5127770;27;40539;-70
2023/10/09 08:03:45;;;;;;;24.38;8.20;;;;;;;;;;5115082;27;41738;-70
2023/10/09 08:09:46;;;;;;;22.55;7.40;;;;;;;;;;5080900;28;39835;-69
2023/10/09 08:12:15;;;;;;;18.80;5.72;;;;;;;;;;5083472;28;42583;-69
2023/10/09 08:14:59;;;;;;;23.48;7.68;;;;;;;;;;5113903;27;41603;-70
2023/10/09 08:17:28;;;;;;;13.75;5.57;;;;;;;;;;5125932;27;41554;-69
2023/10/09 08:19:58;;;;;;;30.67;9.10;;;;;;;;;;5127609;27;42129;-69
2023/10/09 08:22:43;;;;;;;15.30;6.13;;;;;;;;;;5128415;27;40283;-69
2023/10/09 08:31:02;;;;;;;14.75;6.38;;;;;;;;;;5109937;27;40150;-69
2023/10/09 08:33:43;;;;;;;13.48;6.85;;;;;;;;;;5126875;27;41689;-69
2023/10/09 08:36:22;;;;;;;14.65;6.38;;;;;;;;;;5125926;27;42132;-70
2023/10/09 08:38:52;;;;;;;12.32;7.78;;;;;;;;;;5125172;27;41554;-69
2023/10/09 08:41:22;;;;;;;12.77;9.45;;;;;;;;;;5127623;27;43202;-69
2023/10/09 08:43:51;;;;;;;9.93;6.28;;;;;;;;;;5125139;27;40341;-70
2023/10/09 08:46:22;;;;;;;11.40;6.03;;;;;;;;;;5123846;27;42159;-70
2023/10/09 08:48:50;;;;;;;10.15;6.25;;;;;;;;;;5121378;27;43321;-69
2023/10/09 08:51:19;;;;;;;13.18;8.32;;;;;;;;;;5124616;27;41358;-70
2023/10/09 08:53:47;;;;;;;15.15;10.55;;;;;;;;;;5126847;27;41757;-70
2023/10/09 08:56:21;;;;;;;20.92;11.10;;;;;;;;;;5131312;27;43160;-70
2023/10/09 08:58:51;;;;;;;16.60;11.77;;;;;;;;;;5128183;27;39877;-69
2023/10/09 09:01:21;;;;;;;13.70;6.93;;;;;;;;;;5130927;27;41722;-70
2023/10/09 09:03:50;;;;;;;15.77;9.05;;;;;;;;;;5130903;27;40776;-69
2023/10/09 09:06:19;;;;;;;18.25;10.80;;;;;;;;;;5131805;27;42773;-70
2023/10/09 09:08:47;;;;;;;18.73;12.82;;;;;;;;;;5131000;27;42117;-70
2023/10/09 09:11:17;;;;;;;15.68;10.65;;;;;;;;;;5131939;27;41055;-69
2023/10/09 09:13:51;;;;;;;18.85;10.95;;;;;;;;;;5130842;27;41874;-70
2023/10/09 09:16:20;;;;;;;13.60;10.15;;;;;;;;;;5127881;27;42356;-69
2023/10/09 09:19:00;;;;;;;16.23;9.05;;;;;;;;;;5131100;27;40571;-70
2023/10/09 09:21:28;;;;;;;16.67;9.98;;;;;;;;;;5127576;27;42376;-70
2023/10/09 09:23:57;;;;;;;21.70;10.88;;;;;;;;;;5123770;27;41610;-68
2023/10/09 09:26:37;;;;;;;22.33;12.75;;;;;;;;;;5122396;27;42030;-71
2023/10/09 09:29:07;;;;;;;23.20;11.45;;;;;;;;;;5125359;27;41562;-71
2023/10/09 09:31:38;;;;;;;18.77;12.60;;;;;;;;;;5125982;27;40425;-71
2023/10/09 09:34:14;;;;;;;21.05;13.48;;;;;;;;;;5129997;27;40039;-72
2023/10/09 09:36:53;;;;;;;26.00;13.02;;;;;;;;;;5130617;27;43125;-73
2023/10/09 09:39:28;;;;;;;21.77;14.30;;;;;;;;;;5118717;27;40216;-71
2023/10/09 09:42:13;;;;;;;24.02;14.65;;;;;;;;;;5132182;27;42269;-71
2023/10/09 09:44:44;;;;;;;20.70;14.00;;;;;;;;;;5115906;27;40650;-72
2023/10/09 09:47:13;;;;;;;18.80;13.32;;;;;;;;;;5128260;27;41627;-72
2023/10/09 09:49:43;;;;;;;23.63;13.30;;;;;;;;;;5129637;27;42994;-71
2023/10/09 09:52:12;;;;;;;22.65;13.55;;;;;;;;;;5130729;27;40914;-72
2023/10/09 09:54:40;;;;;;;20.17;13.68;;;;;;;;;;5129455;27;41333;-72
2023/10/09 09:57:12;;;;;;;25.83;12.38;;;;;;;;;;5129644;27;42011;-72
2023/10/09 09:59:51;;;;;;;27.23;12.82;;;;;;;;;;5129942;27;40716;-69
2023/10/09 10:02:21;;;;;;;30.17;11.80;;;;;;;;;;5120975;27;41452;-70
2023/10/09 10:04:54;;;;;;;36.20;12.48;;;;;;;;;;5127405;27;42921;-69
2023/10/09 10:07:23;;;;;;;36.38;11.85;;;;;;;;;;5126631;27;41277;-73
2023/10/09 10:09:54;;;;;;;30.17;10.65;;;;;;;;;;5124162;27;42222;-71
2023/10/09 10:12:41;;;;;;;28.77;10.70;;;;;;;;;;5128221;27;41442;-72
2023/10/09 10:15:14;;;;;;;29.17;10.43;;;;;;;;;;5131332;27;41401;-72
2023/10/09 10:17:58;;;;;;;23.17;10.43;;;;;;;;;;5127709;27;42592;-71
2023/10/09 10:20:31;;;;;;;24.33;10.65;;;;;;;;;;5120913;27;41270;-70
2023/10/09 10:23:19;;;;;;;20.83;10.48;;;;;;;;;;5120381;27;40997;-69
2023/10/09 10:25:50;;;;;;;21.60;9.27;;;;;;;;;;5113876;27;41503;-70
2023/10/09 10:28:38;;;;;;;14.45;8.48;;;;;;;;;;5118095;27;39752;-70
2023/10/09 10:31:08;;;;;;;14.23;7.65;;;;;;;;;;5121007;27;44050;-69
2023/10/09 10:33:54;;;;;;;17.13;9.18;;;;;;;;;;5127304;27;41134;-69
2023/10/09 10:36:24;;;;;;;21.88;8.45;;;;;;;;;;5127254;27;41894;-69
2023/10/09 10:39:04;;;;;;;11.73;8.18;;;;;;;;;;5126419;27;41752;-71
2023/10/09 10:41:36;;;;;;;22.85;9.02;;;;;;;;;;5128322;27;40322;-71
2023/10/09 10:44:33;;;;;;;15.35;6.90;;;;;;;;;;5130912;27;41602;-70
2023/10/09 10:47:01;;;;;;;13.27;5.85;;;;;;;;;;5120164;27;43050;-69
2023/10/09 10:49:36;;;;;;;18.08;7.93;;;;;;;;;;5131113;27;40185;-70
2023/10/09 10:52:16;;;;;;;16.63;7.65;;;;;;;;;;5121254;27;41625;-71
2023/10/09 10:55:03;;;;;;;14.98;7.03;;;;;;;;;;5124763;27;41416;-69
2023/10/09 10:57:37;;;;;;;11.13;5.43;;;;;;;;;;5123086;27;41248;-69
2023/10/09 11:01:00;;;;;;;11.32;6.55;;;;;;;;;;5129228;27;42669;-69
2023/10/09 11:03:13;;;;;;;12.27;6.00;;;;;;;;;;5124234;27;40616;-68
2023/10/09 11:05:42;;;;;;;13.05;5.78;;;;;;;;;;5120158;27;42364;-70
2023/10/09 11:08:13;;;;;;;13.18;6.50;;;;;;;;;;5129369;27;41706;-69
2023/10/09 11:10:49;;;;;;;15.98;6.35;;;;;;;;;;5120519;27;40462;-69
2023/10/09 11:13:33;;;;;;;15.93;7.03;;;;;;;;;;5125772;27;41684;-69
2023/10/09 11:16:15;;;;;;;15.00;6.63;;;;;;;;;;5119767;27;42956;-69
2023/10/09 11:18:47;;;;;;;17.33;6.45;;;;;;;;;;5124843;27;41125;-69
2023/10/09 11:21:31;;;;;;;15.20;6.05;;;;;;;;;;5125496;27;42845;-68
2023/10/09 11:24:23;;;;;;;10.20;6.07;;;;;;;;;;5125313;27;40931;-69
2023/10/09 11:26:55;;;;;;;14.57;6.78;;;;;;;;;;5128040;27;41907;-69
2023/10/09 11:32:17;;;;;;;12.18;7.05;;;;;;;;;;5117956;27;41107;-69
2023/10/09 11:34:51;;;;;;;16.95;5.95;;;;;;;;;;5127079;27;41302;-69
2023/10/09 11:37:38;;;;;;;60.53;8.27;;;;;;;;;;5119533;27;43041;-69
2023/10/09 11:40:23;;;;;;;31.15;8.82;;;;;;;;;;5117569;27;41476;-67
2023/10/09 11:42:50;;;;;;;34.33;8.93;;;;;;;;;;5123042;27;41935;-69
2023/10/09 11:45:24;;;;;;;38.20;8.65;;;;;;;;;;5121370;27;41546;-69
2023/10/09 11:47:57;;;;;;;30.85;8.32;;;;;;;;;;5119811;27;42604;-69
2023/10/09 11:50:43;;;;;;;29.63;7.22;;;;;;;;;;5114427;27;43260;-69
2023/10/09 11:53:33;;;;;;;25.63;6.88;;;;;;;;;;5112975;27;41716;-69
2023/10/09 11:56:03;;;;;;;31.85;7.80;;;;;;;;;;5115613;27;42343;-69
2023/10/09 11:58:31;;;;;;;25.88;6.50;;;;;;;;;;5117753;27;42783;-69
2023/10/09 12:01:03;;;;;;;30.33;7.30;;;;;;;;;;5121807;27;40037;-68
2023/10/09 12:03:34;;;;;;;16.42;7.07;;;;;;;;;;5123872;27;43162;-69
2023/10/09 12:06:04;;;;;;;22.75;6.50;;;;;;;;;;5118194;27;40246;-69
2023/10/09 12:08:33;;;;;;;24.45;6.03;;;;;;;;;;5120589;27;41053;-70
2023/10/09 12:11:08;;;;;;;21.73;6.38;;;;;;;;;;5127949;27;43404;-69
2023/10/09 12:13:39;;;;;;;22.17;5.85;;;;;;;;;;5106492;27;39891;-70
2023/10/09 12:16:09;;;;;;;18.42;6.60;;;;;;;;;;5123074;27;42692;-70
2023/10/09 12:18:39;;;;;;;13.52;6.03;;;;;;;;;;5124286;27;42062;-70
2023/10/09 12:21:07;;;;;;;16.90;5.97;;;;;;;;;;5126387;27;41563;-70
2023/10/09 12:23:36;;;;;;;16.35;6.15;;;;;;;;;;5128496;27;41052;-70
2023/10/09 12:26:04;;;;;;;18.25;5.38;;;;;;;;;;5117250;27;40335;-70
2023/10/09 12:28:33;;;;;;;18.85;6.40;;;;;;;;;;5125154;27;42039;-70
2023/10/09 12:31:03;;;;;;;16.73;5.47;;;;;;;;;;5115121;27;41604;-70
2023/10/09 12:33:31;;;;;;;18.98;6.43;;;;;;;;;;5127346;27;40684;-70
2023/10/09 12:36:00;;;;;;;14.85;5.63;;;;;;;;;;5119464;27;41499;-69
2023/10/09 12:38:32;;;;;;;16.05;5.70;;;;;;;;;;5121167;27;41972;-69
2023/10/09 12:41:19;;;;;;;15.10;5.70;;;;;;;;;;5124331;27;39930;-70
2023/10/09 12:43:47;;;;;;;14.00;5.65;;;;;;;;;;5124177;27;41666;-70
2023/10/09 12:46:17;;;;;;;13.73;5.57;;;;;;;;;;5123550;27;41938;-70
2023/10/09 12:48:46;;;;;;;8.73;4.82;;;;;;;;;;5125275;27;41265;-70
2023/10/09 12:51:16;;;;;;;13.82;5.50;;;;;;;;;;5124197;27;42344;-70
2023/10/09 12:53:45;;;;;;;22.20;5.90;;;;;;;;;;5107594;27;40646;-68
2023/10/09 12:56:13;;;;;;;8.88;4.75;;;;;;;;;;5127823;27;41451;-69
2023/10/09 12:58:52;;;;;;;13.57;5.00;;;;;;;;;;5127075;27;41629;-70
2023/10/09 13:01:22;;;;;;;11.77;5.28;;;;;;;;;;5123941;27;40332;-68
2023/10/09 13:03:50;;;;;;;10.73;5.13;;;;;;;;;;5127952;27;42203;-68
2023/10/09 13:06:23;;;;;;;14.75;5.10;;;;;;;;;;5125250;27;42132;-69
2023/10/09 13:08:52;;;;;;;36.85;6.13;;;;;;;;;;5126911;27;41578;-69
2023/10/09 13:11:21;;;;;;;27.98;5.60;;;;;;;;;;5128009;27;42146;-70
2023/10/09 13:13:50;;;;;;;101.15;10.27;;;;;;;;;;5126484;27;40678;-70
2023/10/09 13:16:22;;;;;;;79.47;7.95;;;;;;;;;;5127929;27;42289;-70
2023/10/09 13:18:52;;;;;;;69.75;9.00;;;;;;;;;;5124368;27;42143;-70
2023/10/09 13:21:21;;;;;;;47.15;7.60;;;;;;;;;;5127264;27;40972;-69
2023/10/09 13:23:49;;;;;;;60.60;7.22;;;;;;;;;;5127191;27;42371;-69
2023/10/09 13:26:23;;;;;;;46.58;7.20;;;;;;;;;;5128058;27;42039;-69
2023/10/09 13:29:01;;;;;;;36.90;6.75;;;;;;;;;;5124618;27;40450;-70
2023/10/09 13:31:31;;;;;;;47.15;6.35;;;;;;;;;;5127679;27;42564;-68
2023/10/09 13:34:02;;;;;;;47.58;6.93;;;;;;;;;;5127937;27;40945;-68
2023/10/09 13:36:32;;;;;;;52.58;6.57;;;;;;;;;;5123536;27;41615;-68
2023/10/09 13:39:19;;;;;;;46.17;7.00;;;;;;;;;;5111343;27;42910;-68
2023/10/09 13:41:47;;;;;;;41.45;7.57;;;;;;;;;;5116786;27;40691;-69
2023/10/09 13:44:15;;;;;;;37.47;6.95;;;;;;;;;;5120271;27;41825;-69
2023/10/09 13:46:44;;;;;;;38.17;6.28;;;;;;;;;;5120659;27;41399;-70
2023/10/09 13:49:13;;;;;;;38.50;6.55;;;;;;;;;;5123149;27;41072;-70
2023/10/09 13:51:44;;;;;;;32.47;5.95;;;;;;;;;;5127611;27;41718;-70
2023/10/09 13:54:19;;;;;;;32.88;6.13;;;;;;;;;;5120601;27;33718;-69
2023/10/09 13:56:52;;;;;;;26.77;5.93;;;;;;;;;;5116001;27;41601;-69
2023/10/09 13:59:22;;;;;;;44.13;6.65;;;;;;;;;;5123984;27;41626;-71
2023/10/09 14:01:50;;;;;;;56.45;6.63;;;;;;;;;;5121097;27;40779;-72
2023/10/09 14:04:20;;;;;;;45.35;5.78;;;;;;;;;;5120709;27;41671;-73
2023/10/09 14:06:48;;;;;;;28.30;5.68;;;;;;;;;;5122986;27;42171;-70
2023/10/09 14:09:30;;;;;;;43.80;6.05;;;;;;;;;;5130892;27;41078;-72
2023/10/09 14:12:06;;;;;;;32.22;5.70;;;;;;;;;;5126300;27;41660;-72
2023/10/09 14:14:37;;;;;;;24.42;4.93;;;;;;;;;;5124920;27;42072;-72
2023/10/09 14:17:11;;;;;;;35.30;5.75;;;;;;;;;;5124279;27;42055;-72
2023/10/09 14:19:46;;;;;;;25.73;5.85;;;;;;;;;;5130708;27;42080;-72
2023/10/09 14:22:15;;;;;;;23.70;5.63;;;;;;;;;;5127384;27;40990;-72
2023/10/09 14:24:45;;;;;;;25.80;4.80;;;;;;;;;;5129976;27;42133;-72
2023/10/09 14:27:17;;;;;;;37.72;6.63;;;;;;;;;;5126047;27;42040;-69
2023/10/09 14:29:45;;;;;;;15.48;5.60;;;;;;;;;;5128644;27;40060;-72
2023/10/09 14:32:14;;;;;;;30.20;6.32;;;;;;;;;;5125963;27;41666;-69
2023/10/09 14:34:49;;;;;;;21.88;5.25;;;;;;;;;;5118150;27;42272;-72
2023/10/09 14:37:19;;;;;;;32.30;6.15;;;;;;;;;;5131035;27;39886;-72
2023/10/09 14:39:48;;;;;;;22.30;5.15;;;;;;;;;;5126557;27;42674;-74
2023/10/09 14:42:16;;;;;;;22.20;4.95;;;;;;;;;;5130257;27;40347;-71
2023/10/09 14:44:45;;;;;;;19.23;4.43;;;;;;;;;;5129586;27;42674;-72
2023/10/09 14:47:14;;;;;;;18.13;5.13;;;;;;;;;;5129847;27;42001;-70
2023/10/09 14:49:46;;;;;;;16.55;4.07;;;;;;;;;;5116102;27;41078;-68
2023/10/09 14:52:16;;;;;;;18.23;5.05;;;;;;;;;;5116537;27;41529;-70
2023/10/09 14:54:45;;;;;;;30.25;5.55;;;;;;;;;;5119407;27;42172;-69
2023/10/09 14:57:13;;;;;;;19.50;4.88;;;;;;;;;;5122555;27;41048;-69
2023/10/09 14:59:42;;;;;;;15.02;4.53;;;;;;;;;;5125556;27;41539;-70
2023/10/09 15:02:12;;;;;;;15.35;4.43;;;;;;;;;;5125202;27;40037;-69
2023/10/09 15:04:40;;;;;;;16.50;4.43;;;;;;;;;;5125128;27;41645;-70
2023/10/09 15:07:12;;;;;;;12.75;4.70;;;;;;;;;;5119706;27;41742;-70
2023/10/09 15:09:53;;;;;;;8.13;4.43;;;;;;;;;;5117312;27;41190;-70
2023/10/09 15:12:22;;;;;;;14.88;4.25;;;;;;;;;;5116365;27;42322;-69
2023/10/09 15:14:53;;;;;;;13.07;4.30;;;;;;;;;;5119576;27;41996;-69
2023/10/09 15:17:21;;;;;;;14.50;6.10;;;;;;;;;;5125841;27;40844;-71
2023/10/09 15:19:54;;;;;;;15.13;4.57;;;;;;;;;;5117186;27;41386;-71
2023/10/09 15:22:28;;;;;;;13.68;4.25;;;;;;;;;;5119083;27;43272;-71
2023/10/09 15:24:56;;;;;;;12.02;4.30;;;;;;;;;;5115044;27;41479;-71
2023/10/09 15:27:24;;;;;;;8.75;4.18;;;;;;;;;;5120041;27;42189;-71
2023/10/09 15:29:52;;;;;;;23.20;4.13;;;;;;;;;;5117753;27;41348;-70
2023/10/09 15:32:22;;;;;;;26.02;4.70;;;;;;;;;;5121706;27;41557;-70
2023/10/09 15:34:55;;;;;;;55.88;5.35;;;;;;;;;;5117481;27;42124;-70
2023/10/09 15:37:24;;;;;;;41.85;5.05;;;;;;;;;;5117910;27;41361;-70
2023/10/09 15:39:52;;;;;;;24.00;5.38;;;;;;;;;;5117613;27;41795;-68
2023/10/09 15:42:20;;;;;;;18.95;5.63;;;;;;;;;;5124562;27;40170;-69
2023/10/09 15:44:51;;;;;;;24.85;6.03;;;;;;;;;;5120820;27;40110;-68
2023/10/09 15:47:21;;;;;;;22.58;6.43;;;;;;;;;;5121353;27;40964;-67
2023/10/09 15:49:54;;;;;;;21.85;7.00;;;;;;;;;;5121191;27;41326;-68
2023/10/09 15:52:26;;;;;;;27.02;6.50;;;;;;;;;;5121033;27;41027;-68
2023/10/09 15:54:55;;;;;;;16.70;6.15;;;;;;;;;;5118702;27;42272;-68
2023/10/09 15:57:23;;;;;;;29.63;6.90;;;;;;;;;;5123017;27;40503;-68
2023/10/09 15:59:51;;;;;;;17.95;7.10;;;;;;;;;;5122632;27;42752;-67
2023/10/09 16:02:19;;;;;;;14.95;6.90;;;;;;;;;;5125532;27;42580;-68
2023/10/09 16:04:47;;;;;;;18.33;6.65;;;;;;;;;;5130570;27;40918;-68
2023/10/09 16:07:15;;;;;;;12.40;6.45;;;;;;;;;;5124030;27;43182;-67
2023/10/09 16:09:43;;;;;;;18.80;6.28;;;;;;;;;;5124452;27;39907;-68
2023/10/09 16:12:13;;;;;;;16.45;6.70;;;;;;;;;;5121435;27;41781;-68
2023/10/09 16:14:41;;;;;;;14.73;6.68;;;;;;;;;;5121869;27;43109;-68